Flight Track Log - Related Links

Times and Time Zones

All times are in EDT time to prevent confusion due to time zone crossing. See the GJS3706 flight status page for this flight to view local times or setup timezone preferences in your user account.

Time Position Orientation Groundspeed Altitude Reporting Facility
EDT Latitude Longitude Course Direction KTS MPH feet Rate Location/Type
Sat 09:15:59 AM 42.0000 -87.8833 66° East 153 176 1,500  Level Chicago TRACON
Sat 09:16:59 AM 42.0333 -87.8333 48° Northeast 194 223 3,300 2,182 Climbing Chicago TRACON
Sat 09:19:00 AM 42.1501 -87.3996 66° East  Level FlightAware Approximate
Sat 09:19:17 AM 42.0506 -87.6317 83° East 256 295 8,700  Level Chicago Center
Sat 09:20:00 AM 42.1936 -87.2693 66° East  Level FlightAware Approximate
Sat 09:20:18 AM 42.0794 -87.5372 68° East 281 323 11,100  Level Chicago Center
Sat 09:21:00 AM 42.2370 -87.1389 66° East  Level FlightAware Approximate
Sat 09:21:19 AM 42.1197 -87.4444 60° Northeast 287 330 14,100  Level Chicago Center
Sat 09:22:21 AM 42.1606 -87.3497 60° Northeast 291 335 16,100 1,854 Climbing Chicago Center
Sat 09:23:22 AM 42.2039 -87.2447 61° Northeast 317 365 17,900 1,475 Climbing Chicago Center
Sat 09:24:23 AM 42.2608 -87.1050 61° Northeast 360 414 19,100 1,317 Climbing Chicago Center
Sat 09:25:25 AM 42.2828 -86.9719 77° East 367 422 20,600 1,463 Climbing Chicago Center
Sat 09:26:26 AM 42.2883 -86.8308 87° East 375 432 22,100 1,377 Climbing Chicago Center
Sat 09:27:27 AM 42.2931 -86.6839 87° East 390 449 23,400 1,317 Climbing Chicago Center
Sat 09:28:29 AM 42.2989 -86.5436 87° East 400 460 24,800 1,317 Climbing Chicago Center
Sat 09:29:30 AM 42.3044 -86.3703 87° East 406 467 26,100 1,122 Climbing Chicago Center
Sat 09:30:32 AM 42.3111 -86.2142 87° East 416 479 27,100 976 Climbing Chicago Center
Sat 09:31:33 AM 42.3142 -86.0544 88° East 427 491 28,100 1,033 Climbing Chicago Center
Sat 09:32:34 AM 42.3122 -85.8936 91° East 430 495 29,200 1,073 Climbing Chicago Center
Sat 09:33:36 AM 42.3106 -85.7319 91° East 433 498 30,300 1,024 Climbing Chicago Center
Sat 09:34:37 AM 42.3089 -85.5708 91° East 433 498 31,300 1,000 Climbing Chicago Center
Sat 09:35:48 AM 42.3089 -85.3569 90° East 433 498 32,500 916 Climbing Cleveland Center
Sat 09:36:48 AM 42.3050 -85.1967 92° East 433 498 33,300 800 Climbing Cleveland Center
Sat 09:37:48 AM 42.3033 -85.0308 91° East 433 498 34,100 700 Climbing Cleveland Center
Sat 09:38:48 AM 42.2992 -84.8675 92° East 428 493 34,700 500 Climbing Cleveland Center
Sat 09:39:48 AM 42.2947 -84.7044 92° East 433 498 35,100 450 Climbing Cleveland Center
Sat 09:40:48 AM 42.2858 -84.5381 94° East 433 498 35,600 500 Climbing Cleveland Center
Sat 09:41:48 AM 42.2956 -84.3758 85° East 438 504 36,100 500 Climbing Cleveland Center
Sat 09:42:48 AM 42.3194 -84.2117 79° East 438 504 36,600 450 Climbing Cleveland Center
Sat 09:43:48 AM 42.3475 -84.0475 77° East 444 511 37,000 200 Climbing Cleveland Center
Sat 09:44:48 AM 42.3878 -83.8894 71° East 449 517 37,000  Level Cleveland Center
Sat 09:45:48 AM 42.4297 -83.7283 71° East 449 517 37,000  Level Cleveland Center
Sat 09:46:48 AM 42.4714 -83.5672 71° East 454 522 37,000  Level Cleveland Center
Sat 09:47:48 AM 42.5111 -83.4028 72° East 454 522 37,000  Level Cleveland Center
Sat 09:48:48 AM 42.5506 -83.2356 72° East 454 522 37,000  Level Cleveland Center
Sat 09:49:48 AM 42.5875 -83.0733 73° East 454 522 37,000  Level Cleveland Center
Sat 09:50:48 AM 42.6264 -82.9111 72° East 454 522 37,000  Level Cleveland Center
Sat 09:51:48 AM 42.6669 -82.7461 71° East 454 522 37,000  Level Cleveland Center
Sat 09:52:48 AM 42.7056 -82.5808 72° East 454 522 37,000  Level Cleveland Center
Sat 09:53:48 AM 42.7436 -82.4153 73° East 454 522 37,000  Level Cleveland Center
Sat 09:54:48 AM 42.7836 -82.2522 71° East 454 522 37,000  Level Cleveland Center
Sat 09:55:48 AM 42.8192 -82.0889 73° East 454 522 37,000  Level Cleveland Center
Sat 09:57:59 AM 42.9000 -81.7000 74° East 460 529 37,000  Level Toronto Center
Sat 09:58:59 AM 42.9333 -81.5500 73° East 460 529 37,000  Level Toronto Center
Sat 09:59:59 AM 42.9667 -81.3833 75° East 460 529 37,000  Level Toronto Center
Sat 10:00:59 AM 43.0000 -81.2000 76° East 460 529 37,000  Level Toronto Center
Sat 10:01:59 AM 43.0333 -81.0500 73° East 460 529 37,000  Level Toronto Center
Sat 10:02:59 AM 43.0667 -80.8667 76° East 470 541 37,000  Level Toronto Center
Sat 10:03:59 AM 43.1167 -80.7000 68° East 470 541 37,000  Level Toronto Center
Sat 10:04:59 AM 43.1500 -80.5167 76° East 470 541 37,000  Level Toronto Center
Sat 10:05:59 AM 43.1833 -80.3667 73° East 470 541 37,000  Level Toronto Center
Sat 10:06:59 AM 43.2333 -80.1833 69° East 460 529 37,000  Level Toronto Center
Sat 10:07:59 AM 43.2667 -80.0167 75° East 470 541 37,000  Level Toronto Center
Sat 10:08:59 AM 43.3000 -79.8333 76° East 460 529 37,000  Level Toronto Center
Sat 10:09:59 AM 43.3333 -79.6833 73° East 460 529 37,000  Level Toronto Center
Sat 10:10:59 AM 43.3667 -79.5167 75° East 470 541 37,000  Level Toronto Center
Sat 10:12:00 AM 43.4000 -79.3333 76° East 470 541 37,000  Level Toronto Center
Sat 10:12:59 AM 43.4333 -79.1667 75° East 460 529 37,000  Level Toronto Center
Sat 10:13:59 AM 43.4667 -78.9833 76° East 460 529 37,000  Level Toronto Center
Sat 10:14:59 AM 43.5000 -78.8333 73° East 460 529 37,000  Level Toronto Center
Sat 10:15:59 AM 43.5500 -78.6500 69° East 470 541 37,000  Level Toronto Center
Sat 10:16:24 AM 43.5603 -78.5981 75° East 457 526 37,000  Level Cleveland Center
Sat 10:17:24 AM 43.5947 -78.4250 75° East 457 526 37,000  Level Cleveland Center
Sat 10:18:24 AM 43.6267 -78.2547 75° East 457 526 37,000  Level Cleveland Center
Sat 10:18:59 AM 43.6333 -78.1333 86° East 460 529 37,000  Level Toronto Center
Sat 10:19:59 AM 43.6667 -77.9667 74° East 460 529 37,000  Level Toronto Center
Sat 10:21:00 AM 43.7000 -77.7833 76° East 460 529 37,000  Level Toronto Center
Sat 10:22:00 AM 43.7333 -77.6333 73° East 450 518 37,000  Level Toronto Center
Sat 10:22:59 AM 43.7667 -77.4333 77° East 450 518 37,000  Level Toronto Center
Sat 10:24:00 AM 43.7833 -77.2833 81° East 450 518 37,000  Level Toronto Center
Sat 10:25:00 AM 43.8167 -77.1167 74° East 450 518 37,000  Level Toronto Center
Sat 10:26:00 AM 43.8500 -76.9500 74° East 450 518 37,000  Level Toronto Center
Sat 10:27:00 AM 43.8833 -76.7667 76° East 450 518 37,000  Level Toronto Center
Sat 10:28:00 AM 43.9000 -76.6000 82° East 450 518 37,000  Level Toronto Center
Sat 10:28:44 AM 43.9472 -76.5153 52° Northeast 450 518 37,000  Level Boston Center
Sat 10:29:44 AM 43.9742 -76.3439 78° East 450 518 37,000  Level Boston Center
Sat 10:30:44 AM 44.0047 -76.1725 76° East 450 518 37,000 -200 Level Boston Center
Sat 10:31:44 AM 44.0353 -76.0011 76° East 450 518 36,600 -1,000 Descending Boston Center
Sat 10:32:44 AM 44.0633 -75.8294 77° East 450 518 35,000 -1,550 Descending Boston Center
Sat 10:33:44 AM 44.0892 -75.6633 78° East 445 512 33,500 -1,500 Descending Boston Center
Sat 10:34:44 AM 44.1183 -75.5028 76° East 440 506 32,000 -1,500 Descending Boston Center
Sat 10:35:44 AM 44.1414 -75.3419 79° East 428 493 30,500 -1,500 Descending Boston Center
Sat 10:36:44 AM 44.1683 -75.1783 77° East 428 493 29,000 -1,500 Descending Boston Center
Sat 10:37:44 AM 44.1931 -75.0142 78° East 433 498 27,500 -1,800 Descending Boston Center
Sat 10:38:44 AM 44.2169 -74.8617 78° East 422 486 25,400 -2,350 Descending Boston Center
Sat 10:39:44 AM 44.2389 -74.7147 78° East 401 461 22,800 -2,550 Descending Boston Center
Sat 10:40:44 AM 44.2625 -74.5708 77° East 389 448 20,300 -2,400 Descending Boston Center
Sat 10:41:44 AM 44.2858 -74.4236 77° East 389 448 18,000 -2,450 Descending Boston Center
Sat 10:42:44 AM 44.3050 -74.2850 79° East 378 435 15,400 -2,550 Descending Boston Center
Sat 10:43:44 AM 44.3236 -74.1464 79° East 368 423 12,900 -2,200 Descending Boston Center
Sat 10:44:44 AM 44.3464 -74.0106 77° East 368 423 11,000 -950 Descending Boston Center
Sat 10:45:44 AM 44.3669 -73.8747 78° East 363 418 11,000 -500 Level Boston Center
Sat 10:46:44 AM 44.4036 -73.7681 64° Northeast 311 358 10,000 -1,500 Descending Boston Center
Sat 10:47:44 AM 44.4544 -73.6906 47° Northeast 284 327 8,000 -1,850 Descending Boston Center
Sat 10:48:44 AM 44.4950 -73.6072 56° Northeast 269 310 6,300 -1,400 Descending Boston Center
Sat 10:49:44 AM 44.5208 -73.5172 68° East 248 285 5,200 -850 Descending Boston Center
Sat 10:50:44 AM 44.5425 -73.4450 67° East 221 254 4,600 -1,050 Descending Boston Center
Sat 10:51:44 AM 44.5575 -73.3781 73° East 196 226 3,100 -1,500 Descending Boston Center

Login

Don't have an account? Register now (free) for customized features, flight alerts, and more!